Time;durP1;ratioP1;P1;durP2;ratioP2;P2;SDS_P1;SDS_P2;PMS_P1;PMS_P2;Temp;Humidity;BMP_temperature;BMP_pressure;BME280_temperature;BME280_humidity;BME280_pressure;Samples;Min_cycle;Max_cycle;Signal;HPM_P1;HPM_P2
2024/03/02 00:00:09;;;;;;;0.30;0.30;;;12.90;99.90;;;;;;5086169;28;20413;-78
2024/03/02 00:02:43;;;;;;;0.30;0.20;;;12.90;99.90;;;;;;5088045;28;20425;-79
2024/03/02 00:05:21;;;;;;;0.77;0.77;;;12.90;99.90;;;;;;5087499;28;20413;-78
2024/03/02 00:07:57;;;;;;;0.30;0.20;;;12.80;99.90;;;;;;5086239;28;20455;-78
2024/03/02 00:10:31;;;;;;;0.30;0.20;;;12.90;99.90;;;;;;5087636;28;20405;-79
2024/03/02 00:12:58;;;;;;;1.37;1.27;;;12.90;99.90;;;;;;5087239;28;20464;-78
2024/03/02 00:15:45;;;;;;;0.30;0.20;;;12.80;99.90;;;;;;5087609;28;20492;-78
2024/03/02 00:18:12;;;;;;;2.50;2.30;;;12.80;99.90;;;;;;5086137;28;20486;-78
2024/03/02 00:20:38;;;;;;;0.30;0.20;;;12.80;99.90;;;;;;5087444;28;20762;-78
2024/03/02 00:23:06;;;;;;;0.50;0.50;;;12.80;99.90;;;;;;5087120;28;20485;-78
2024/03/02 00:25:55;;;;;;;0.30;0.20;;;12.90;99.90;;;;;;5087584;28;20754;-78
2024/03/02 00:28:26;;;;;;;0.93;0.93;;;12.80;99.90;;;;;;5085611;28;20813;-79
2024/03/02 00:31:07;;;;;;;3.03;1.27;;;12.80;99.90;;;;;;5087390;28;20931;-78
2024/03/02 00:33:43;;;;;;;4.67;4.17;;;12.90;99.90;;;;;;5087464;28;20437;-78
2024/03/02 00:36:11;;;;;;;0.80;0.80;;;12.90;99.90;;;;;;5085674;28;20433;-78
2024/03/02 00:38:57;;;;;;;0.30;0.20;;;12.80;99.90;;;;;;5085881;28;20544;-78
2024/03/02 00:41:24;;;;;;;0.30;0.20;;;12.70;99.90;;;;;;5084919;28;20413;-78
2024/03/02 00:44:03;;;;;;;3.63;3.33;;;12.70;99.90;;;;;;5085589;28;20972;-78
2024/03/02 00:46:34;;;;;;;3.23;3.03;;;12.70;99.90;;;;;;5085143;28;20450;-78
2024/03/02 00:49:02;;;;;;;0.30;0.20;;;12.70;99.90;;;;;;5085396;28;20444;-78
2024/03/02 00:51:30;;;;;;;0.30;0.20;;;12.70;99.90;;;;;;5086936;28;20871;-78
2024/03/02 00:54:00;;;;;;;0.30;0.20;;;12.70;99.90;;;;;;5085601;28;20437;-78
2024/03/02 00:56:26;;;;;;;1.47;1.47;;;12.70;99.90;;;;;;5086762;28;20870;-78
2024/03/02 00:58:52;;;;;;;4.07;0.80;;;12.70;99.90;;;;;;5085257;28;20452;-78
2024/03/02 01:01:19;;;;;;;0.30;0.20;;;12.70;99.90;;;;;;5084865;28;20191;-78
2024/03/02 01:03:45;;;;;;;0.30;0.20;;;12.70;99.90;;;;;;5086455;28;20501;-79
2024/03/02 01:06:11;;;;;;;0.70;0.70;;;12.60;99.90;;;;;;5085067;28;20405;-78
2024/03/02 01:08:38;;;;;;;0.30;0.20;;;12.70;99.90;;;;;;5086485;28;20437;-79
2024/03/02 01:11:04;;;;;;;0.87;0.87;;;12.70;99.90;;;;;;5086463;28;20180;-79
2024/03/02 01:13:31;;;;;;;2.07;1.97;;;12.70;99.90;;;;;;5086289;28;21098;-79
2024/03/02 01:15:57;;;;;;;0.30;0.20;;;12.70;99.90;;;;;;5086646;28;20457;-79
2024/03/02 01:18:23;;;;;;;0.30;0.20;;;12.70;99.90;;;;;;5085470;28;20831;-79
2024/03/02 01:20:51;;;;;;;2.20;0.97;;;12.60;99.90;;;;;;5085928;28;20666;-79
2024/03/02 01:23:19;;;;;;;0.30;0.20;;;12.50;99.90;;;;;;5084288;28;20444;-79
2024/03/02 01:25:46;;;;;;;0.30;0.20;;;12.50;99.90;;;;;;5086319;28;20428;-78
2024/03/02 01:28:11;;;;;;;0.30;0.30;;;12.60;99.90;;;;;;5085669;28;20812;-79
2024/03/02 01:30:37;;;;;;;0.30;0.30;;;12.60;99.90;;;;;;5086490;28;20401;-79
2024/03/02 01:33:05;;;;;;;0.30;0.30;;;12.60;99.90;;;;;;5085637;28;20720;-79
2024/03/02 01:35:34;;;;;;;0.30;0.20;;;12.60;99.90;;;;;;5084660;28;20259;-79
2024/03/02 01:38:00;;;;;;;0.30;0.20;;;12.60;99.90;;;;;;5084534;28;20992;-79
2024/03/02 01:40:26;;;;;;;0.30;0.30;;;12.50;99.90;;;;;;5085644;28;20456;-79
2024/03/02 01:42:54;;;;;;;4.63;4.33;;;12.50;99.90;;;;;;5084080;28;20480;-79
2024/03/02 01:45:20;;;;;;;0.77;0.77;;;12.50;99.90;;;;;;5085905;28;20405;-78
2024/03/02 01:47:46;;;;;;;0.30;0.27;;;12.50;99.90;;;;;;5084143;28;20780;-79
2024/03/02 01:50:13;;;;;;;0.30;0.20;;;12.50;99.90;;;;;;5085870;28;20402;-79
2024/03/02 01:52:39;;;;;;;0.30;0.20;;;12.40;99.90;;;;;;5084476;28;20672;-79
2024/03/02 01:55:06;;;;;;;0.30;0.20;;;12.40;99.90;;;;;;5085432;28;20977;-79
2024/03/02 01:57:32;;;;;;;0.30;0.20;;;12.30;99.90;;;;;;5084161;28;20449;-79
2024/03/02 01:59:58;;;;;;;0.30;0.30;;;12.20;99.90;;;;;;5086217;28;20444;-79
2024/03/02 02:02:24;;;;;;;0.60;0.60;;;12.20;99.90;;;;;;5085440;28;20437;-79
2024/03/02 02:04:49;;;;;;;0.40;0.27;;;12.00;99.90;;;;;;5085846;28;20488;-79
2024/03/02 02:07:15;;;;;;;0.30;0.20;;;12.00;99.90;;;;;;5085042;28;20173;-79
2024/03/02 02:09:44;;;;;;;0.30;0.20;;;12.00;99.90;;;;;;5086180;28;20200;-79
2024/03/02 02:12:10;;;;;;;1.03;1.03;;;12.00;99.90;;;;;;5083267;28;20199;-79
2024/03/02 02:14:36;;;;;;;0.50;0.47;;;11.90;99.90;;;;;;5084478;28;20473;-79
2024/03/02 02:17:02;;;;;;;0.30;0.20;;;11.80;99.90;;;;;;5083935;28;20567;-79
2024/03/02 02:19:28;;;;;;;0.30;0.20;;;11.90;99.90;;;;;;5085742;28;20699;-79
2024/03/02 02:21:54;;;;;;;0.30;0.20;;;11.80;99.90;;;;;;5084627;28;20417;-79
2024/03/02 02:24:20;;;;;;;0.33;0.20;;;11.80;99.90;;;;;;5085587;28;20204;-78
2024/03/02 02:26:45;;;;;;;1.67;1.60;;;11.80;99.90;;;;;;5084255;28;20421;-78
2024/03/02 02:29:11;;;;;;;0.30;0.20;;;11.80;99.90;;;;;;5083958;28;20212;-79
2024/03/02 02:31:38;;;;;;;4.20;3.00;;;11.80;99.90;;;;;;5085499;28;20223;-79
2024/03/02 02:34:05;;;;;;;0.37;0.37;;;11.80;99.90;;;;;;5085611;28;20646;-79
2024/03/02 02:36:31;;;;;;;0.30;0.20;;;11.80;99.90;;;;;;5083801;28;20409;-79
2024/03/02 02:38:59;;;;;;;0.30;0.20;;;11.80;99.90;;;;;;5084949;28;20822;-79
2024/03/02 02:41:25;;;;;;;0.30;0.30;;;11.80;99.90;;;;;;5084361;28;20481;-79
2024/03/02 02:43:50;;;;;;;0.30;0.20;;;11.80;99.90;;;;;;5084040;28;20539;-79
2024/03/02 02:46:16;;;;;;;0.30;0.20;;;11.80;99.90;;;;;;5085188;28;20177;-79
2024/03/02 02:48:42;;;;;;;0.30;0.20;;;11.80;99.90;;;;;;5085354;28;20308;-79
2024/03/02 02:51:07;;;;;;;0.30;0.20;;;11.80;99.90;;;;;;5085025;28;20181;-79
2024/03/02 02:53:35;;;;;;;0.30;0.30;;;11.80;99.90;;;;;;5083773;28;20396;-79
2024/03/02 02:56:01;;;;;;;1.40;1.27;;;11.80;99.90;;;;;;5083874;28;20208;-79
2024/03/02 02:58:27;;;;;;;0.30;0.20;;;11.70;99.90;;;;;;5083172;28;20549;-79
2024/03/02 03:00:54;;;;;;;0.30;0.20;;;11.70;99.90;;;;;;5085015;28;20841;-79
2024/03/02 03:03:20;;;;;;;0.40;0.20;;;11.80;99.90;;;;;;5084609;28;20224;-79
2024/03/02 03:05:45;;;;;;;0.30;0.20;;;11.80;99.90;;;;;;5085084;28;20841;-79
2024/03/02 03:08:11;;;;;;;0.30;0.20;;;11.70;99.90;;;;;;5084426;28;20261;-79
2024/03/02 03:10:37;;;;;;;0.30;0.20;;;11.80;99.90;;;;;;5084652;28;20183;-79
2024/03/02 03:13:03;;;;;;;0.30;0.20;;;11.80;99.90;;;;;;5084452;28;20289;-79
2024/03/02 03:15:29;;;;;;;0.30;0.20;;;11.80;99.90;;;;;;5083749;28;20226;-79
2024/03/02 03:17:54;;;;;;;0.30;0.20;;;11.70;99.90;;;;;;5083173;28;20953;-79
2024/03/02 03:20:21;;;;;;;0.30;0.20;;;11.70;99.90;;;;;;5083101;28;20272;-79
2024/03/02 03:22:47;;;;;;;0.30;0.20;;;11.70;99.90;;;;;;5084282;28;20607;-79
2024/03/02 03:25:12;;;;;;;0.30;0.20;;;11.70;99.90;;;;;;5086334;28;20508;-79
2024/03/02 03:27:38;;;;;;;0.30;0.20;;;11.70;99.90;;;;;;5088255;28;20192;-79
2024/03/02 03:30:05;;;;;;;0.30;0.20;;;11.70;99.90;;;;;;5087028;28;20233;-79
2024/03/02 03:32:31;;;;;;;0.30;0.20;;;11.80;99.90;;;;;;5088207;28;20996;-78
2024/03/02 03:34:57;;;;;;;0.30;0.20;;;11.80;99.90;;;;;;5087281;28;20302;-78
2024/03/02 03:37:23;;;;;;;0.30;0.30;;;11.80;99.90;;;;;;5088231;28;20176;-78
2024/03/02 03:39:49;;;;;;;0.30;0.20;;;11.80;99.90;;;;;;5087883;28;20177;-78
2024/03/02 03:42:15;;;;;;;0.30;0.20;;;11.90;99.90;;;;;;5087997;28;20761;-77
2024/03/02 03:44:41;;;;;;;0.30;0.20;;;11.80;99.90;;;;;;5088627;28;20673;-77
2024/03/02 03:47:07;;;;;;;0.30;0.20;;;11.80;99.90;;;;;;5086458;28;20186;-77
2024/03/02 03:49:32;;;;;;;0.30;0.30;;;11.80;99.90;;;;;;5088161;28;20925;-77
2024/03/02 03:51:58;;;;;;;0.30;0.20;;;11.80;99.90;;;;;;5087652;28;20177;-79
2024/03/02 03:54:24;;;;;;;1.03;1.03;;;11.70;99.90;;;;;;5088223;28;20712;-79
2024/03/02 03:56:49;;;;;;;0.30;0.20;;;11.70;99.90;;;;;;5087832;28;20224;-78
2024/03/02 03:59:15;;;;;;;0.40;0.40;;;11.70;99.90;;;;;;5086216;28;20204;-78
2024/03/02 04:01:41;;;;;;;0.30;0.20;;;11.80;99.90;;;;;;5086401;28;20373;-78
2024/03/02 04:04:06;;;;;;;0.70;0.70;;;11.80;99.90;;;;;;5087567;28;20245;-78
2024/03/02 04:06:32;;;;;;;0.40;0.20;;;11.80;99.90;;;;;;5086514;28;20212;-78
2024/03/02 04:08:58;;;;;;;3.33;1.57;;;11.80;99.90;;;;;;5087841;28;20760;-78
2024/03/02 04:11:24;;;;;;;0.30;0.20;;;11.80;99.90;;;;;;5087398;28;20183;-78
2024/03/02 04:13:49;;;;;;;0.30;0.20;;;11.80;99.90;;;;;;5087819;28;20477;-78
2024/03/02 04:16:15;;;;;;;0.30;0.20;;;11.80;99.90;;;;;;5085774;28;20816;-78
2024/03/02 04:18:41;;;;;;;0.30;0.20;;;11.80;99.90;;;;;;5087760;28;20216;-78
2024/03/02 04:21:07;;;;;;;0.30;0.20;;;11.80;99.90;;;;;;5086986;28;20315;-78
2024/03/02 04:23:33;;;;;;;0.30;0.20;;;11.80;99.90;;;;;;5087522;28;20452;-78
2024/03/02 04:25:58;;;;;;;0.30;0.20;;;11.80;99.90;;;;;;5085413;28;20279;-78
2024/03/02 04:28:24;;;;;;;0.30;0.20;;;11.80;99.90;;;;;;5086917;28;20439;-78
2024/03/02 04:30:49;;;;;;;0.30;0.20;;;11.80;99.90;;;;;;5087592;28;20225;-78
2024/03/02 04:33:15;;;;;;;1.43;1.33;;;11.80;99.90;;;;;;5087008;28;20539;-78
2024/03/02 04:35:41;;;;;;;0.30;0.20;;;11.80;99.90;;;;;;5086977;28;20338;-78
2024/03/02 04:38:06;;;;;;;0.30;0.20;;;11.80;99.90;;;;;;5085167;28;20208;-78
2024/03/02 04:40:32;;;;;;;1.37;1.27;;;11.80;99.90;;;;;;5086857;28;20233;-78
2024/03/02 04:42:59;;;;;;;0.30;0.20;;;11.80;99.90;;;;;;5086667;28;20188;-79
2024/03/02 04:45:24;;;;;;;0.40;0.40;;;11.80;99.90;;;;;;5086960;28;20180;-78
2024/03/02 04:47:50;;;;;;;0.30;0.30;;;11.80;99.90;;;;;;5087151;28;20778;-78
2024/03/02 04:50:16;;;;;;;6.87;2.30;;;11.80;99.90;;;;;;5085543;28;20191;-78
2024/03/02 04:52:41;;;;;;;0.30;0.20;;;11.70;99.90;;;;;;5086918;28;20211;-78
2024/03/02 04:55:17;;;;;;;0.30;0.20;;;11.70;99.90;;;;;;5085299;28;20220;-78
2024/03/02 04:57:43;;;;;;;0.40;0.40;;;11.60;99.90;;;;;;5086691;28;20196;-78
2024/03/02 05:00:10;;;;;;;0.30;0.30;;;11.50;99.90;;;;;;5084937;28;20195;-78
2024/03/02 05:02:36;;;;;;;0.30;0.20;;;11.50;99.90;;;;;;5085938;28;20192;-79
2024/03/02 05:05:02;;;;;;;0.30;0.20;;;11.50;99.90;;;;;;5086561;28;20187;-78
2024/03/02 05:07:28;;;;;;;0.30;0.20;;;11.40;99.90;;;;;;5086176;28;20758;-78
2024/03/02 05:09:53;;;;;;;0.47;0.47;;;11.40;99.90;;;;;;5085447;28;20177;-78
2024/03/02 05:15:21;;;;;;;1.35;1.25;;;11.40;99.90;;;;;;5063402;28;20213;-78
2024/03/02 05:17:47;;;;;;;0.30;0.20;;;11.50;99.90;;;;;;5081114;28;20235;-78
2024/03/02 05:20:13;;;;;;;0.30;0.30;;;11.40;99.90;;;;;;5086004;28;20480;-78
2024/03/02 05:22:39;;;;;;;0.30;0.20;;;11.40;99.90;;;;;;5086023;28;20196;-78
2024/03/02 05:25:05;;;;;;;0.40;0.40;;;11.40;99.90;;;;;;5086542;28;20767;-78
2024/03/02 05:27:32;;;;;;;0.87;0.87;;;11.40;99.90;;;;;;5085084;28;20283;-78
2024/03/02 05:29:59;;;;;;;0.95;0.95;;;11.40;99.90;;;;;;5086207;28;20409;-78
2024/03/02 05:32:24;;;;;;;0.67;0.67;;;11.40;99.90;;;;;;5085878;28;20203;-78
2024/03/02 05:34:50;;;;;;;0.30;0.20;;;11.40;99.90;;;;;;5085256;28;20472;-78
2024/03/02 05:37:16;;;;;;;0.30;0.20;;;11.40;99.90;;;;;;5085528;28;20343;-78
2024/03/02 05:39:43;;;;;;;0.30;0.20;;;11.40;99.90;;;;;;5084889;28;20271;-78
2024/03/02 05:42:09;;;;;;;0.30;0.20;;;11.40;99.90;;;;;;5085489;28;20180;-78
2024/03/02 05:44:38;;;;;;;0.30;0.20;;;11.30;99.90;;;;;;5086427;28;20254;-78
2024/03/02 05:47:04;;;;;;;1.20;1.20;;;11.30;99.90;;;;;;5084992;28;20409;-78
2024/03/02 05:49:30;;;;;;;0.30;0.20;;;11.30;99.90;;;;;;5084600;28;20658;-78
2024/03/02 05:51:56;;;;;;;0.30;0.20;;;11.30;99.90;;;;;;5085470;28;20197;-78
2024/03/02 05:54:21;;;;;;;5.18;2.35;;;11.20;99.90;;;;;;5082838;28;20235;-78
2024/03/02 05:56:47;;;;;;;0.50;0.50;;;11.20;99.90;;;;;;5082483;28;20185;-78
2024/03/02 05:59:13;;;;;;;0.30;0.20;;;11.20;99.90;;;;;;5082729;28;20794;-78
2024/03/02 06:01:52;;;;;;;0.30;0.30;;;11.20;99.90;;;;;;5084039;28;20405;-78
2024/03/02 06:04:18;;;;;;;0.63;0.63;;;11.20;99.90;;;;;;5084170;28;20276;-78
2024/03/02 06:06:44;;;;;;;0.30;0.20;;;11.20;99.90;;;;;;5082785;28;20271;-78
2024/03/02 06:09:13;;;;;;;0.30;0.20;;;11.20;99.90;;;;;;5083344;28;20287;-78
2024/03/02 06:11:40;;;;;;;21.10;19.70;;;11.20;99.90;;;;;;5084893;28;20478;-78
2024/03/02 06:14:07;;;;;;;0.30;0.20;;;11.20;99.90;;;;;;5085134;28;20479;-78
2024/03/02 06:16:33;;;;;;;0.50;0.50;;;11.20;99.90;;;;;;5067183;28;20181;-77
2024/03/02 06:18:59;;;;;;;1.15;1.15;;;11.20;99.90;;;;;;5064062;28;20247;-78
2024/03/02 06:21:25;;;;;;;0.30;0.20;;;11.20;99.90;;;;;;5063742;28;20239;-78
2024/03/02 06:23:51;;;;;;;0.30;0.20;;;11.20;99.90;;;;;;5063888;28;20197;-78
2024/03/02 06:26:18;;;;;;;0.33;0.20;;;11.20;99.90;;;;;;5065077;28;20361;-78
2024/03/02 06:28:44;;;;;;;0.30;0.20;;;11.20;99.90;;;;;;5064010;28;20434;-78
2024/03/02 06:31:10;;;;;;;0.73;0.73;;;11.20;99.90;;;;;;5079520;28;20183;-78
2024/03/02 06:33:36;;;;;;;0.30;0.20;;;11.20;99.90;;;;;;5084331;28;20204;-78
2024/03/02 06:36:02;;;;;;;1.65;1.55;;;11.20;99.90;;;;;;5082758;28;20525;-78
2024/03/02 06:38:28;;;;;;;0.30;0.20;;;11.20;99.90;;;;;;5080962;28;20200;-78
2024/03/02 06:40:55;;;;;;;0.30;0.20;;;11.30;99.90;;;;;;5084180;28;20210;-78
2024/03/02 06:43:23;;;;;;;1.75;1.65;;;11.30;99.90;;;;;;5074513;28;20203;-78
2024/03/02 06:45:52;;;;;;;0.30;0.20;;;11.30;99.90;;;;;;5070504;28;20196;-75
2024/03/02 06:48:20;;;;;;;0.30;0.30;;;11.20;99.90;;;;;;5083332;28;20202;-79
2024/03/02 06:50:49;;;;;;;0.30;0.20;;;11.20;99.90;;;;;;5083638;28;20184;-79
2024/03/02 06:53:17;;;;;;;0.30;0.20;;;11.20;99.90;;;;;;5083329;28;20253;-76
2024/03/02 06:55:44;;;;;;;0.30;0.20;;;11.20;99.90;;;;;;5082854;28;20215;-77
2024/03/02 06:58:11;;;;;;;0.30;0.20;;;11.20;99.90;;;;;;5081774;28;20230;-76
2024/03/02 07:00:36;;;;;;;0.30;0.20;;;11.20;99.90;;;;;;5086661;28;20175;-78
2024/03/02 07:03:03;;;;;;;0.30;0.20;;;11.20;99.90;;;;;;5086625;28;20651;-83
2024/03/02 07:05:28;;;;;;;0.30;0.30;;;11.20;99.90;;;;;;5085580;28;20525;-80
2024/03/02 07:07:54;;;;;;;0.33;0.20;;;11.20;99.90;;;;;;5085100;28;20197;-75
2024/03/02 07:10:20;;;;;;;0.30;0.20;;;11.20;99.90;;;;;;5085300;28;20781;-76
2024/03/02 07:12:45;;;;;;;9.43;9.00;;;11.20;99.90;;;;;;5084135;28;20235;-76
2024/03/02 07:15:24;;;;;;;0.30;0.20;;;11.20;99.90;;;;;;5086289;28;20214;-77
2024/03/02 07:17:50;;;;;;;0.30;0.20;;;11.20;99.90;;;;;;5086001;28;20196;-78
2024/03/02 07:20:16;;;;;;;2.70;2.60;;;11.10;99.90;;;;;;5085353;28;20889;-77
2024/03/02 07:22:41;;;;;;;0.30;0.20;;;11.10;99.90;;;;;;5086163;28;20518;-75
2024/03/02 07:25:07;;;;;;;2.53;1.23;;;11.10;99.90;;;;;;5086283;28;20233;-79
2024/03/02 07:27:35;;;;;;;0.30;0.20;;;11.10;99.90;;;;;;5086681;28;20219;-80
2024/03/02 07:30:02;;;;;;;0.30;0.20;;;11.10;99.90;;;;;;5086694;28;20429;-77
2024/03/02 07:32:28;;;;;;;0.30;0.20;;;11.00;99.90;;;;;;5087109;28;20263;-78
2024/03/02 07:34:53;;;;;;;0.30;0.20;;;11.00;99.90;;;;;;5087449;28;20283;-75
2024/03/02 07:37:20;;;;;;;0.30;0.20;;;11.00;99.90;;;;;;5086961;28;20351;-79
2024/03/02 07:39:45;;;;;;;0.30;0.20;;;11.00;99.90;;;;;;5086459;28;20543;-76
2024/03/02 07:42:11;;;;;;;0.30;0.30;;;11.10;99.90;;;;;;5085637;28;20180;-78
2024/03/02 07:44:38;;;;;;;0.30;0.20;;;11.10;99.90;;;;;;5087328;28;20187;-80
2024/03/02 07:47:05;;;;;;;0.30;0.28;;;11.10;99.90;;;;;;5085779;28;20268;-79
2024/03/02 07:49:31;;;;;;;0.30;0.20;;;11.10;99.90;;;;;;5069281;28;20784;-77
2024/03/02 07:51:56;;;;;;;0.30;0.20;;;11.00;99.90;;;;;;5085810;28;20173;-76
2024/03/02 07:54:22;;;;;;;2.00;2.00;;;11.10;99.90;;;;;;5087308;28;20214;-79
2024/03/02 07:56:48;;;;;;;0.30;0.20;;;11.10;99.90;;;;;;5085970;28;20172;-77
2024/03/02 07:59:13;;;;;;;2.00;1.27;;;11.10;99.90;;;;;;5087503;28;20201;-74
2024/03/02 08:01:39;;;;;;;0.50;0.50;;;11.10;99.90;;;;;;5087148;28;20653;-74
2024/03/02 08:04:05;;;;;;;0.30;0.20;;;11.10;99.90;;;;;;5085868;28;20202;-74
2024/03/02 08:06:31;;;;;;;0.30;0.20;;;11.10;99.90;;;;;;5087409;28;20424;-75
2024/03/02 08:08:57;;;;;;;2.47;2.37;;;11.00;99.90;;;;;;5086543;28;20196;-76
2024/03/02 08:11:23;;;;;;;0.30;0.20;;;11.00;99.90;;;;;;5086394;28;20173;-81
2024/03/02 08:13:49;;;;;;;0.50;0.50;;;11.00;99.90;;;;;;5087246;28;20252;-79
2024/03/02 08:16:16;;;;;;;0.30;0.20;;;11.00;99.90;;;;;;5085306;28;21064;-79
2024/03/02 08:18:42;;;;;;;0.30;0.20;;;11.00;99.90;;;;;;5086960;28;20204;-80
2024/03/02 08:21:08;;;;;;;0.30;0.20;;;11.10;99.90;;;;;;5086507;28;20175;-79
2024/03/02 08:23:35;;;;;;;0.30;0.20;;;11.10;99.90;;;;;;5087044;28;20283;-78
2024/03/02 08:26:00;;;;;;;0.70;0.60;;;11.10;99.90;;;;;;5086918;28;21127;-79
2024/03/02 08:28:26;;;;;;;0.30;0.20;;;11.00;99.90;;;;;;5074708;28;20203;-77
2024/03/02 08:30:52;;;;;;;0.30;0.20;;;11.10;99.90;;;;;;5065918;28;20192;-76
2024/03/02 08:33:18;;;;;;;0.30;0.20;;;11.10;99.90;;;;;;5064719;28;20239;-79
2024/03/02 08:35:43;;;;;;;0.30;0.20;;;11.10;99.90;;;;;;5067355;28;20217;-76
2024/03/02 08:38:09;;;;;;;0.30;0.20;;;11.20;99.90;;;;;;5077887;28;20201;-74
2024/03/02 08:40:36;;;;;;;0.30;0.20;;;11.30;99.90;;;;;;5065720;28;20207;-76
2024/03/02 08:43:01;;;;;;;1.85;1.83;;;11.30;99.90;;;;;;5064024;28;20212;-75
2024/03/02 08:45:27;;;;;;;0.30;0.20;;;11.30;99.90;;;;;;5065528;28;20927;-77
2024/03/02 08:47:53;;;;;;;0.30;0.20;;;11.30;99.90;;;;;;5064649;28;20227;-76
2024/03/02 08:50:18;;;;;;;1.13;1.10;;;11.30;99.90;;;;;;5064341;28;20268;-75
2024/03/02 08:52:44;;;;;;;0.30;0.20;;;11.30;99.90;;;;;;5065898;28;20223;-78
2024/03/02 08:55:11;;;;;;;1.40;1.40;;;11.20;99.90;;;;;;5065742;28;20233;-76
2024/03/02 08:57:36;;;;;;;0.30;0.30;;;11.20;99.90;;;;;;5065721;28;20224;-79
2024/03/02 09:00:03;;;;;;;3.20;3.10;;;11.30;99.90;;;;;;5064190;28;20745;-75
2024/03/02 09:02:30;;;;;;;0.40;0.40;;;11.30;99.90;;;;;;5065881;28;20189;-80
2024/03/02 09:04:56;;;;;;;0.30;0.20;;;11.30;99.90;;;;;;5065453;28;20177;-77
2024/03/02 09:07:22;;;;;;;0.30;0.20;;;11.30;99.90;;;;;;5063997;28;20416;-79
2024/03/02 09:09:47;;;;;;;0.30;0.20;;;11.40;99.90;;;;;;5065891;28;20173;-79
2024/03/02 09:12:13;;;;;;;0.30;0.20;;;11.40;99.90;;;;;;5065146;28;20192;-78
2024/03/02 09:14:40;;;;;;;0.80;0.80;;;11.40;99.90;;;;;;5065006;28;20224;-77
2024/03/02 09:17:08;;;;;;;1.02;1.02;;;11.40;99.90;;;;;;5065512;28;20444;-74
2024/03/02 09:19:33;;;;;;;0.30;0.20;;;11.50;99.90;;;;;;5066061;28;20197;-79
2024/03/02 09:21:59;;;;;;;1.77;1.67;;;11.50;99.90;;;;;;5063996;28;20169;-77
2024/03/02 09:24:25;;;;;;;0.30;0.20;;;11.50;99.90;;;;;;5065685;28;20205;-75
2024/03/02 09:26:50;;;;;;;0.30;0.30;;;11.60;99.90;;;;;;5065679;28;20227;-75
2024/03/02 09:29:16;;;;;;;0.40;0.30;;;11.60;99.90;;;;;;5066020;28;20284;-76
2024/03/02 09:31:43;;;;;;;0.30;0.20;;;11.50;99.90;;;;;;5064139;28;20173;-77
2024/03/02 09:34:09;;;;;;;0.30;0.20;;;11.50;99.90;;;;;;5063123;28;20200;-76
2024/03/02 09:36:34;;;;;;;0.30;0.20;;;11.50;99.90;;;;;;5063942;28;20200;-75
2024/03/02 09:39:00;;;;;;;0.30;0.30;;;11.50;99.90;;;;;;5065611;28;20449;-76
2024/03/02 09:41:26;;;;;;;0.40;0.40;;;11.60;99.90;;;;;;5065311;28;20678;-76
2024/03/02 09:43:52;;;;;;;0.30;0.20;;;11.50;99.90;;;;;;5065602;28;20185;-75
2024/03/02 09:46:18;;;;;;;0.33;0.20;;;11.50;99.90;;;;;;5065237;28;20181;-76
2024/03/02 09:48:44;;;;;;;0.30;0.20;;;11.60;99.90;;;;;;5063976;28;20208;-75
2024/03/02 09:51:11;;;;;;;0.50;0.50;;;11.60;99.90;;;;;;5063299;28;20177;-76
2024/03/02 09:53:37;;;;;;;0.30;0.20;;;11.60;99.90;;;;;;5062739;28;20870;-75
2024/03/02 09:56:04;;;;;;;0.30;0.20;;;11.60;99.90;;;;;;5063641;28;20753;-76
2024/03/02 09:58:30;;;;;;;0.40;0.40;;;11.60;99.90;;;;;;5063974;28;20197;-75
2024/03/02 10:00:56;;;;;;;2.43;1.07;;;11.60;99.90;;;;;;5064114;28;20542;-75
2024/03/02 10:03:27;;;;;;;0.30;0.20;;;11.70;99.90;;;;;;5062704;28;20480;-74
2024/03/02 10:05:53;;;;;;;0.30;0.20;;;11.70;99.90;;;;;;5064000;28;20204;-76
2024/03/02 10:08:19;;;;;;;14.93;1.63;;;11.70;99.90;;;;;;5065050;28;20243;-76
2024/03/02 10:10:44;;;;;;;0.30;0.30;;;11.80;99.90;;;;;;5064062;28;20181;-76
2024/03/02 10:13:11;;;;;;;0.30;0.20;;;11.80;99.90;;;;;;5063583;28;20243;-74
2024/03/02 10:15:40;;;;;;;0.30;0.20;;;11.80;99.90;;;;;;5065435;28;20217;-76
2024/03/02 10:18:11;;;;;;;0.30;0.20;;;11.80;99.90;;;;;;5064724;28;20430;-74
2024/03/02 10:20:38;;;;;;;0.40;0.37;;;11.80;99.90;;;;;;5064240;28;20354;-75
2024/03/02 10:23:12;;;;;;;1.00;1.00;;;11.90;99.90;;;;;;5063180;28;20429;-74
2024/03/02 10:25:38;;;;;;;0.40;0.30;;;12.00;99.90;;;;;;5063778;28;20693;-76
2024/03/02 10:28:07;;;;;;;0.30;0.30;;;12.00;99.90;;;;;;5064936;28;20426;-75
2024/03/02 10:30:36;;;;;;;0.30;0.20;;;12.00;99.90;;;;;;5063960;28;20447;-74
2024/03/02 10:33:03;;;;;;;0.30;0.20;;;12.00;99.90;;;;;;5066150;28;20437;-75
2024/03/02 10:35:30;;;;;;;1.87;1.77;;;12.00;99.90;;;;;;5069144;28;20518;-74
2024/03/02 10:37:58;;;;;;;0.30;0.20;;;12.00;99.90;;;;;;5069109;28;20934;-76
2024/03/02 10:40:24;;;;;;;2.13;2.03;;;12.10;99.90;;;;;;5070177;28;20698;-75
2024/03/02 10:42:51;;;;;;;0.30;0.20;;;12.00;99.90;;;;;;5088889;28;20451;-76
2024/03/02 10:45:20;;;;;;;0.30;0.20;;;12.10;99.90;;;;;;5087594;28;20653;-74
2024/03/02 10:47:47;;;;;;;1.00;0.97;;;12.10;99.90;;;;;;5088944;28;20748;-74
2024/03/02 10:50:13;;;;;;;0.40;0.40;;;12.10;99.90;;;;;;5089180;28;20405;-76
2024/03/02 10:52:39;;;;;;;0.30;0.30;;;12.10;99.90;;;;;;5088884;28;20436;-76
2024/03/02 10:55:06;;;;;;;0.30;0.30;;;12.10;99.90;;;;;;5087513;28;20864;-74
2024/03/02 10:57:41;;;;;;;0.30;0.20;;;12.00;99.90;;;;;;5087621;28;20482;-74
2024/03/02 11:00:14;;;;;;;1.27;0.83;;;12.00;99.90;;;;;;5087329;28;20503;-76
2024/03/02 11:02:44;;;;;;;1.53;1.50;;;12.00;99.90;;;;;;5088667;28;20533;-77
2024/03/02 11:05:12;;;;;;;0.30;0.20;;;12.10;99.90;;;;;;5087573;28;20417;-75
2024/03/02 11:07:39;;;;;;;0.30;0.20;;;12.10;99.90;;;;;;5088657;28;20482;-76
2024/03/02 11:10:08;;;;;;;0.30;0.30;;;12.10;99.90;;;;;;5088623;28;20409;-75
2024/03/02 11:12:47;;;;;;;0.57;0.57;;;12.20;99.90;;;;;;5087377;28;20828;-74
2024/03/02 11:15:19;;;;;;;0.30;0.20;;;12.20;99.90;;;;;;5087143;28;21072;-76
2024/03/02 11:17:46;;;;;;;0.30;0.20;;;12.20;99.90;;;;;;5087217;28;20580;-75
2024/03/02 11:20:12;;;;;;;0.83;0.83;;;12.30;99.90;;;;;;5088507;28;20459;-75
2024/03/02 11:22:39;;;;;;;3.60;3.40;;;12.40;99.90;;;;;;5087374;28;20437;-75
2024/03/02 11:25:05;;;;;;;0.30;0.20;;;12.40;99.90;;;;;;5088509;28;20935;-75
2024/03/02 11:27:45;;;;;;;0.30;0.20;;;12.50;99.90;;;;;;5086923;28;20476;-76
2024/03/02 11:30:31;;;;;;;0.30;0.20;;;12.50;99.90;;;;;;5086974;28;20519;-76
2024/03/02 11:32:57;;;;;;;4.53;2.57;;;12.50;99.90;;;;;;5079309;28;20753;-75
2024/03/02 11:35:28;;;;;;;2.00;1.07;;;12.50;99.90;;;;;;5088526;28;20460;-77
2024/03/02 11:37:55;;;;;;;0.30;0.30;;;12.50;99.90;;;;;;5088378;28;20448;-75
2024/03/02 11:40:25;;;;;;;0.30;0.20;;;12.50;99.90;;;;;;5088126;28;20819;-76
2024/03/02 11:42:51;;;;;;;0.50;0.50;;;12.50;99.90;;;;;;5086001;28;20460;-76
2024/03/02 11:45:17;;;;;;;0.30;0.20;;;12.60;99.90;;;;;;5087088;28;20417;-75
2024/03/02 11:47:54;;;;;;;0.73;0.73;;;12.60;99.90;;;;;;5087956;28;20476;-75
2024/03/02 11:50:29;;;;;;;0.30;0.20;;;12.60;99.90;;;;;;5087572;28;20417;-75
2024/03/02 11:52:56;;;;;;;0.90;0.80;;;12.70;99.90;;;;;;5087631;28;20435;-76
2024/03/02 11:55:22;;;;;;;0.30;0.20;;;12.70;99.90;;;;;;5087802;28;20530;-76
2024/03/02 11:57:49;;;;;;;0.40;0.40;;;12.80;99.90;;;;;;5087608;28;20437;-75
2024/03/02 12:00:19;;;;;;;0.30;0.20;;;12.90;99.90;;;;;;5086072;28;20416;-74
2024/03/02 12:03:06;;;;;;;0.30;0.30;;;12.90;99.90;;;;;;5087612;28;20467;-77
2024/03/02 12:05:32;;;;;;;2.73;2.53;;;13.00;99.90;;;;;;5086637;28;20424;-76
2024/03/02 12:08:08;;;;;;;0.30;0.20;;;13.00;99.90;;;;;;5086236;28;20489;-75
2024/03/02 12:10:36;;;;;;;2.93;2.73;;;13.00;99.90;;;;;;5086689;28;20416;-74
2024/03/02 12:13:07;;;;;;;0.30;0.20;;;13.00;99.90;;;;;;5087230;28;20910;-75
2024/03/02 12:15:37;;;;;;;0.30;0.20;;;13.00;99.90;;;;;;5087914;28;20468;-75
2024/03/02 12:18:04;;;;;;;2.13;1.17;;;13.10;99.90;;;;;;5085808;28;20437;-75
2024/03/02 12:20:31;;;;;;;0.40;0.40;;;13.20;99.90;;;;;;5087754;28;20436;-76
2024/03/02 12:23:02;;;;;;;0.30;0.20;;;13.20;99.90;;;;;;5087232;28;20574;-76
2024/03/02 12:25:29;;;;;;;0.67;0.63;;;13.20;99.90;;;;;;5087473;28;20464;-74
2024/03/02 12:27:57;;;;;;;1.23;1.23;;;13.30;99.90;;;;;;5087360;28;20459;-75
2024/03/02 12:30:23;;;;;;;3.80;2.60;;;13.30;99.90;;;;;;5087355;28;20420;-76
2024/03/02 12:32:49;;;;;;;0.30;0.20;;;13.30;99.90;;;;;;5085971;28;20698;-75
2024/03/02 12:35:15;;;;;;;0.30;0.30;;;13.40;99.90;;;;;;5087180;28;20616;-74
2024/03/02 12:37:51;;;;;;;0.40;0.40;;;13.40;99.90;;;;;;5087086;28;20184;-74
2024/03/02 12:40:18;;;;;;;0.30;0.23;;;13.30;99.90;;;;;;5086542;28;20742;-76
2024/03/02 12:42:45;;;;;;;1.27;1.27;;;13.30;99.90;;;;;;5083460;28;20633;-74
2024/03/02 12:45:11;;;;;;;0.30;0.20;;;13.30;99.90;;;;;;5086425;28;20405;-75
2024/03/02 12:47:39;;;;;;;0.30;0.20;;;13.40;99.90;;;;;;5072929;28;20453;-75